Moyer Aviation Incorporated

Pocono Mountains Airport

188 Airport Drive. Tobyhanna, PA 18466 

P: 570-839-7161
800-321-5890
F: 570-839-7162

Weather

Weather

Pocono Weather

KMPO 240553Z AUTO 00000KT 10SM CLR 08/08 A3033 RMK AO2 SLP275 T00780078 10111 20061 51006 $

Allentown Weather

KABE 240551Z AUTO 05004KT 10SM OVC035 16/12 A3031 RMK AO2 SLP263 T01560122 10161 20150 51006

Wilkes-Barre Weather

KAVP 240554Z 00000KT 10SM CLR 11/09 A3033 RMK AO2 SLP269 T01060094 10139 20106 53007 $


* required field

Contact Us